createdAt,value
2022-12-25T00:00:10.416Z,20.35
2022-12-25T00:02:42.431Z,6.85
2022-12-25T00:05:12.220Z,8.57
2022-12-25T00:07:41.784Z,10.88
2022-12-25T00:10:13.301Z,10.80
2022-12-25T00:12:42.582Z,19.73
2022-12-25T00:15:12.198Z,10.27
2022-12-25T00:17:41.467Z,7.28
2022-12-25T00:20:11.386Z,4.82
2022-12-25T00:22:40.598Z,13.30
2022-12-25T00:25:11.665Z,13.75
2022-12-25T00:27:42.252Z,18.80
2022-12-25T00:30:12.431Z,14.23
2022-12-25T00:32:42.271Z,32.35
2022-12-25T00:37:10.406Z,15.13
2022-12-25T00:39:40.346Z,20.67
2022-12-25T00:42:24.087Z,13.05
2022-12-25T00:44:53.406Z,18.95
2022-12-25T00:47:22.701Z,13.32
2022-12-25T00:49:52.147Z,9.88
2022-12-25T00:52:22.784Z,14.25
2022-12-25T00:54:51.985Z,10.10
2022-12-25T00:57:21.843Z,10.05
2022-12-25T00:59:51.294Z,6.93
2022-12-25T01:02:26.393Z,13.43
2022-12-25T01:04:57.657Z,8.38
2022-12-25T01:07:28.982Z,13.00
2022-12-25T01:10:15.870Z,14.07
2022-12-25T01:12:45.879Z,11.23
2022-12-25T01:15:15.675Z,12.25
2022-12-25T01:17:45.769Z,10.40
2022-12-25T01:20:17.176Z,8.30
2022-12-25T01:22:48.651Z,11.90
2022-12-25T01:25:18.131Z,5.35
2022-12-25T01:27:47.302Z,5.15
2022-12-25T01:30:16.655Z,5.40
2022-12-25T01:32:45.993Z,7.20
2022-12-25T01:35:15.333Z,7.03
2022-12-25T01:37:44.603Z,7.07
2022-12-25T01:40:15.539Z,6.85
2022-12-25T01:42:44.971Z,7.53
2022-12-25T01:45:36.646Z,5.72
2022-12-25T01:48:10.027Z,3.85
2022-12-25T01:50:41.413Z,5.60
2022-12-25T01:53:10.920Z,5.25
2022-12-25T01:55:43.877Z,2.65
2022-12-25T01:58:13.513Z,3.30
2022-12-25T02:00:43.358Z,7.82
2022-12-25T02:03:12.947Z,4.57
2022-12-25T02:05:42.637Z,2.30
2022-12-25T02:08:14.002Z,3.90
2022-12-25T02:10:45.019Z,1.83
2022-12-25T02:13:16.267Z,5.22
2022-12-25T02:15:54.180Z,1.85
2022-12-25T02:18:34.997Z,3.70
2022-12-25T02:21:29.586Z,4.03
2022-12-25T02:24:37.294Z,1.65
2022-12-25T02:27:20.897Z,4.30
2022-12-25T02:29:57.366Z,3.00
2022-12-25T02:32:29.955Z,4.63
2022-12-25T02:35:04.723Z,3.53
2022-12-25T02:37:40.106Z,2.45
2022-12-25T02:40:16.411Z,3.70
2022-12-25T02:43:08.439Z,3.83
2022-12-25T02:46:02.790Z,3.90
2022-12-25T02:48:52.842Z,2.08
2022-12-25T02:51:41.919Z,4.53
2022-12-25T02:54:31.189Z,2.03
2022-12-25T02:57:20.705Z,1.80
2022-12-25T03:00:09.657Z,3.53
2022-12-25T03:03:00.201Z,3.05
2022-12-25T03:05:49.446Z,1.60
2022-12-25T03:08:22.512Z,2.50
2022-12-25T03:11:13.307Z,1.40
2022-12-25T03:13:44.771Z,4.28
2022-12-25T03:16:31.502Z,1.33
2022-12-25T03:19:22.339Z,1.83
2022-12-25T03:22:08.348Z,2.10
2022-12-25T03:24:55.064Z,2.53
2022-12-25T03:27:24.452Z,1.85
2022-12-25T03:30:11.122Z,1.33
2022-12-25T03:32:46.405Z,2.10
2022-12-25T03:35:23.450Z,1.17
2022-12-25T03:38:32.500Z,1.65
2022-12-25T03:41:29.634Z,2.63
2022-12-25T03:44:34.965Z,1.20
2022-12-25T03:47:30.870Z,1.80
2022-12-25T03:50:23.235Z,1.30
2022-12-25T03:53:13.634Z,1.40
2022-12-25T03:56:00.894Z,1.17
2022-12-25T03:58:48.338Z,2.00
2022-12-25T04:01:35.262Z,2.15
2022-12-25T04:04:21.831Z,2.25
2022-12-25T04:07:08.573Z,0.95
2022-12-25T04:09:56.807Z,1.40
2022-12-25T04:12:43.400Z,1.17
2022-12-25T04:15:30.436Z,1.10
2022-12-25T04:18:16.862Z,1.33
2022-12-25T04:21:03.778Z,0.95
2022-12-25T04:23:50.434Z,1.25
2022-12-25T04:26:38.546Z,1.73
2022-12-25T04:29:25.292Z,0.90
2022-12-25T04:32:12.481Z,1.20
2022-12-25T04:34:59.381Z,2.45
2022-12-25T04:37:28.699Z,1.20
2022-12-25T04:39:57.919Z,1.10
2022-12-25T04:42:28.665Z,1.27
2022-12-25T04:44:57.866Z,1.60
2022-12-25T04:47:27.062Z,0.88
2022-12-25T04:49:56.409Z,1.38
2022-12-25T04:52:25.624Z,0.95
2022-12-25T04:54:54.830Z,1.10
2022-12-25T04:57:24.210Z,1.08
2022-12-25T04:59:54.781Z,0.90
2022-12-25T05:02:24.119Z,1.40
2022-12-25T05:04:53.403Z,1.02
2022-12-25T05:07:22.643Z,0.80
2022-12-25T05:09:51.957Z,1.20
2022-12-25T05:12:21.341Z,1.90
2022-12-25T05:14:50.651Z,0.93
2022-12-25T05:17:21.259Z,1.25
2022-12-25T05:19:50.583Z,1.08
2022-12-25T05:22:19.756Z,0.77
2022-12-25T05:24:48.974Z,1.10
2022-12-25T05:27:18.467Z,1.05
2022-12-25T05:29:47.661Z,0.88
2022-12-25T05:32:16.881Z,0.80
2022-12-25T05:34:47.453Z,0.98
2022-12-25T05:37:16.787Z,1.23
2022-12-25T05:39:45.938Z,0.80
2022-12-25T05:42:15.205Z,0.70
2022-12-25T05:44:44.338Z,0.80
2022-12-25T05:47:13.544Z,0.95
2022-12-25T05:49:43.461Z,0.80
2022-12-25T05:52:14.172Z,0.82
2022-12-25T05:54:43.559Z,0.70
2022-12-25T05:57:12.946Z,0.70
2022-12-25T05:59:42.205Z,1.35
2022-12-25T06:02:11.468Z,0.80
2022-12-25T06:04:40.902Z,0.75
2022-12-25T06:07:10.100Z,0.70
2022-12-25T06:09:40.729Z,1.15
2022-12-25T06:12:09.932Z,0.80
2022-12-25T06:14:39.087Z,0.88
2022-12-25T06:17:08.356Z,0.77
2022-12-25T06:19:37.656Z,1.08
2022-12-25T06:22:07.007Z,0.60
2022-12-25T06:24:36.433Z,0.70
2022-12-25T06:27:07.099Z,0.73
2022-12-25T06:29:36.432Z,0.73
2022-12-25T06:32:06.114Z,1.85
2022-12-25T06:34:35.585Z,0.65
2022-12-25T06:37:04.973Z,0.70
2022-12-25T06:39:34.139Z,0.77
2022-12-25T06:42:03.604Z,0.63
2022-12-25T06:44:34.795Z,0.65
2022-12-25T06:47:04.032Z,0.95
2022-12-25T06:49:33.216Z,0.60
2022-12-25T06:52:02.577Z,1.02
2022-12-25T06:54:31.828Z,0.55
2022-12-25T06:57:01.089Z,0.73
2022-12-25T06:59:30.471Z,0.85
2022-12-25T07:02:01.519Z,0.80
2022-12-25T07:04:33.817Z,0.80
2022-12-25T07:07:08.346Z,0.70
2022-12-25T07:09:39.366Z,0.80
2022-12-25T07:12:15.644Z,0.70
2022-12-25T07:14:45.182Z,1.00
2022-12-25T07:17:15.991Z,0.85
2022-12-25T07:19:45.642Z,2.92
2022-12-25T07:22:15.233Z,0.77
2022-12-25T07:24:44.675Z,1.05
2022-12-25T07:27:14.088Z,1.30
2022-12-25T07:29:43.311Z,2.42
2022-12-25T07:32:12.786Z,0.60
2022-12-25T07:34:43.458Z,1.17
2022-12-25T07:37:13.104Z,1.00
2022-12-25T07:39:42.365Z,1.27
2022-12-25T07:42:11.593Z,1.40
2022-12-25T07:44:40.967Z,0.75
2022-12-25T07:47:10.164Z,1.75
2022-12-25T07:49:39.543Z,0.70
2022-12-25T07:52:10.370Z,0.70
2022-12-25T07:54:39.669Z,0.98
2022-12-25T07:57:09.974Z,1.80
2022-12-25T07:59:39.289Z,1.05
2022-12-25T08:02:08.918Z,1.33
2022-12-25T08:04:38.533Z,0.75
2022-12-25T08:07:07.738Z,0.90
2022-12-25T08:09:38.678Z,0.73
2022-12-25T08:12:08.390Z,3.35
2022-12-25T08:14:37.797Z,4.60
2022-12-25T08:17:07.388Z,1.65
2022-12-25T08:19:36.631Z,2.00
2022-12-25T08:22:05.963Z,5.95
2022-12-25T08:24:35.298Z,3.40
2022-12-25T08:27:06.491Z,2.40
2022-12-25T08:29:35.807Z,2.17
2022-12-25T08:32:05.367Z,3.00
2022-12-25T08:34:34.656Z,5.20
2022-12-25T08:37:03.888Z,6.13
2022-12-25T08:39:33.267Z,2.80
2022-12-25T08:42:02.536Z,4.43
2022-12-25T08:44:33.153Z,5.10
2022-12-25T08:47:02.446Z,5.40
2022-12-25T08:49:31.695Z,2.97
2022-12-25T08:52:01.096Z,2.03
2022-12-25T08:54:32.762Z,1.23
2022-12-25T08:57:03.172Z,1.42
2022-12-25T08:59:34.917Z,3.50
2022-12-25T09:02:04.647Z,1.58
2022-12-25T09:04:33.908Z,6.47
2022-12-25T09:07:03.113Z,8.55
2022-12-25T09:09:32.434Z,6.45
2022-12-25T09:12:01.800Z,5.72
2022-12-25T09:14:32.268Z,2.47
2022-12-25T09:17:03.060Z,4.47
2022-12-25T09:19:32.951Z,6.72
2022-12-25T09:22:02.262Z,2.55
2022-12-25T09:24:31.527Z,3.40
2022-12-25T09:27:00.897Z,5.72
2022-12-25T09:29:30.430Z,5.28
2022-12-25T09:32:01.497Z,3.45
2022-12-25T09:34:32.500Z,2.47
2022-12-25T09:37:02.166Z,5.70
2022-12-25T09:39:31.437Z,5.30
2022-12-25T09:42:04.084Z,4.13
2022-12-25T09:44:38.413Z,6.38
2022-12-25T09:47:13.408Z,32.00
2022-12-25T09:49:50.323Z,8.48
2022-12-25T09:52:23.396Z,10.20
2022-12-25T09:54:59.099Z,4.57
2022-12-25T09:57:28.727Z,8.50
2022-12-25T09:59:59.508Z,8.90
2022-12-25T10:05:45.975Z,7.05
2022-12-25T10:08:26.426Z,6.50
2022-12-25T10:11:03.348Z,9.57
2022-12-25T10:13:50.337Z,7.53
2022-12-25T10:16:27.935Z,10.52
2022-12-25T10:19:19.834Z,4.18
2022-12-25T10:21:53.798Z,5.82
2022-12-25T10:24:34.534Z,3.92
2022-12-25T10:27:09.237Z,4.22
2022-12-25T10:29:39.858Z,7.28
2022-12-25T10:32:11.789Z,6.20
2022-12-25T10:34:43.764Z,2.67
2022-12-25T10:37:14.764Z,3.63
2022-12-25T10:39:46.875Z,8.93
2022-12-25T10:42:40.201Z,9.20
2022-12-25T10:45:11.263Z,8.07
2022-12-25T10:47:42.926Z,4.90
2022-12-25T10:50:20.263Z,5.32
2022-12-25T10:52:57.797Z,6.85
2022-12-25T10:55:29.459Z,5.65
2022-12-25T10:57:59.909Z,5.13
2022-12-25T11:00:30.969Z,8.68
2022-12-25T11:03:01.042Z,7.75
2022-12-25T11:05:32.629Z,7.72
2022-12-25T11:08:04.778Z,27.67
2022-12-25T11:10:36.615Z,10.80
2022-12-25T11:13:08.854Z,6.22
2022-12-25T11:15:40.616Z,5.60
2022-12-25T11:18:21.425Z,10.98
2022-12-25T11:20:52.836Z,7.80
2022-12-25T11:23:25.775Z,4.50
2022-12-25T11:25:58.926Z,7.40
2022-12-25T11:28:29.232Z,11.98
2022-12-25T11:31:02.185Z,8.32
2022-12-25T11:33:36.952Z,7.80
2022-12-25T11:36:17.396Z,7.65
2022-12-25T11:38:48.277Z,9.80
2022-12-25T11:41:20.919Z,8.68
2022-12-25T11:43:54.645Z,4.43
2022-12-25T11:46:28.615Z,6.43
2022-12-25T11:49:02.743Z,9.40
2022-12-25T11:51:36.876Z,9.35
2022-12-25T11:54:15.779Z,7.55
2022-12-25T11:56:45.563Z,8.60
2022-12-25T11:59:21.891Z,6.22
2022-12-25T12:01:56.347Z,10.50
2022-12-25T12:04:32.700Z,2.97
2022-12-25T12:07:10.304Z,4.80
2022-12-25T12:09:48.942Z,6.53
2022-12-25T12:12:23.231Z,13.32
2022-12-25T12:14:59.233Z,5.93
2022-12-25T12:17:28.576Z,6.68
2022-12-25T12:19:59.109Z,5.50
2022-12-25T12:22:30.129Z,8.85
2022-12-25T12:25:06.424Z,7.97
2022-12-25T12:27:39.125Z,5.72
2022-12-25T12:30:23.378Z,3.97
2022-12-25T12:32:55.081Z,5.25
2022-12-25T12:35:28.140Z,5.60
2022-12-25T12:38:02.024Z,5.85
2022-12-25T12:40:35.592Z,2.47
2022-12-25T12:43:05.897Z,5.22
2022-12-25T12:45:37.860Z,5.50
2022-12-25T12:48:16.802Z,2.92
2022-12-25T12:50:46.158Z,8.43
2022-12-25T12:53:29.952Z,3.13
2022-12-25T12:56:11.400Z,4.57
2022-12-25T12:58:48.762Z,3.50
2022-12-25T13:01:40.864Z,6.22
2022-12-25T13:04:35.570Z,4.28
2022-12-25T13:07:14.620Z,4.57
2022-12-25T13:09:59.659Z,3.33
2022-12-25T13:12:30.608Z,2.03
2022-12-25T13:15:01.594Z,7.28
2022-12-25T13:17:31.191Z,3.03
2022-12-25T13:20:02.598Z,4.10
2022-12-25T13:22:33.839Z,5.05
2022-12-25T13:25:05.367Z,3.53
2022-12-25T13:27:36.293Z,3.03
2022-12-25T13:30:14.836Z,5.20
2022-12-25T13:32:45.989Z,3.30
2022-12-25T13:35:16.853Z,4.10
2022-12-25T13:37:46.690Z,5.43
2022-12-25T13:40:24.745Z,4.03
2022-12-25T13:43:01.888Z,5.20
2022-12-25T13:45:34.352Z,3.00
2022-12-25T13:48:16.183Z,4.95
2022-12-25T13:51:00.186Z,6.93
2022-12-25T13:53:31.884Z,5.05
2022-12-25T13:56:02.286Z,3.55
2022-12-25T13:58:37.256Z,10.63
2022-12-25T14:01:08.086Z,6.63
2022-12-25T14:03:42.773Z,14.52
2022-12-25T14:06:20.562Z,9.82
2022-12-25T14:08:50.501Z,6.13
2022-12-25T14:11:22.529Z,8.07
2022-12-25T14:13:55.809Z,9.48
2022-12-25T14:16:26.414Z,4.10
2022-12-25T14:18:57.642Z,5.13
2022-12-25T14:21:31.903Z,9.77
2022-12-25T14:24:01.471Z,3.72
2022-12-25T14:26:33.349Z,4.60
2022-12-25T14:29:17.181Z,6.55
2022-12-25T14:31:48.317Z,7.07
2022-12-25T14:34:20.716Z,15.40
2022-12-25T14:36:51.248Z,5.03
2022-12-25T14:39:39.230Z,6.05
2022-12-25T14:42:21.155Z,7.25
2022-12-25T14:45:04.522Z,6.82
2022-12-25T14:47:35.422Z,5.55
2022-12-25T14:50:15.867Z,5.05
2022-12-25T14:52:46.907Z,7.93
2022-12-25T14:55:22.126Z,2.92
2022-12-25T14:57:54.003Z,4.13
2022-12-25T15:00:27.452Z,2.67
2022-12-25T15:02:59.085Z,4.55
2022-12-25T15:05:32.551Z,3.63
2022-12-25T15:08:04.700Z,3.03
2022-12-25T15:13:24.372Z,2.50
2022-12-25T15:15:59.139Z,6.30
2022-12-25T15:18:32.969Z,5.40
2022-12-25T15:21:02.754Z,3.75
2022-12-25T15:23:32.063Z,6.68
2022-12-25T15:26:01.321Z,3.50
2022-12-25T15:28:30.548Z,3.85
2022-12-25T15:31:01.558Z,5.00
2022-12-25T15:33:31.285Z,4.53
2022-12-25T15:36:01.035Z,3.67
2022-12-25T15:38:36.784Z,5.57
2022-12-25T15:41:07.187Z,3.33
2022-12-25T15:43:41.083Z,7.57
2022-12-25T15:46:12.622Z,7.45
2022-12-25T15:48:42.096Z,3.47
2022-12-25T15:51:11.392Z,5.32
2022-12-25T15:53:40.755Z,3.70
2022-12-25T15:56:11.595Z,2.42
2022-12-25T15:58:40.902Z,3.78
2022-12-25T16:01:16.332Z,4.13
2022-12-25T16:03:46.388Z,3.28
2022-12-25T16:06:17.421Z,1.73
2022-12-25T16:08:47.114Z,4.05
2022-12-25T16:11:16.334Z,2.45
2022-12-25T16:13:45.588Z,3.03
2022-12-25T16:16:16.411Z,3.58
2022-12-25T16:18:47.658Z,3.10
2022-12-25T16:21:20.312Z,2.53
2022-12-25T16:23:49.716Z,4.28
2022-12-25T16:26:19.204Z,2.10
2022-12-25T16:28:48.688Z,3.42
2022-12-25T16:31:19.778Z,2.97
2022-12-25T16:33:49.606Z,1.80
2022-12-25T16:36:26.602Z,3.10
2022-12-25T16:38:56.788Z,2.30
2022-12-25T16:41:26.339Z,1.88
2022-12-25T16:43:55.672Z,5.15
2022-12-25T16:46:27.302Z,6.10
2022-12-25T16:48:57.828Z,4.18
2022-12-25T16:51:27.425Z,4.10
2022-12-25T16:53:57.244Z,3.45
2022-12-25T16:56:28.641Z,2.97
2022-12-25T16:58:59.564Z,2.42
2022-12-25T17:01:30.797Z,2.30
2022-12-25T17:04:01.733Z,1.70
2022-12-25T17:06:32.111Z,2.80
2022-12-25T17:09:03.359Z,2.35
2022-12-25T17:11:33.665Z,3.58
2022-12-25T17:14:05.400Z,17.35
2022-12-25T17:16:38.109Z,8.85
2022-12-25T17:19:09.873Z,6.03
2022-12-25T17:21:39.537Z,6.15
2022-12-25T17:24:09.294Z,7.78
2022-12-25T17:26:40.977Z,9.43
2022-12-25T17:29:11.022Z,7.13
2022-12-25T17:31:42.530Z,3.30
2022-12-25T17:34:14.710Z,10.27
2022-12-25T17:36:44.049Z,12.32
2022-12-25T17:39:13.547Z,10.13
2022-12-25T17:41:42.894Z,8.48
2022-12-25T17:44:12.372Z,4.97
2022-12-25T17:46:43.244Z,9.05
2022-12-25T17:49:17.483Z,9.57
2022-12-25T17:51:47.368Z,11.07
2022-12-25T17:54:16.642Z,5.22
2022-12-25T17:56:45.949Z,8.57
2022-12-25T17:59:18.813Z,11.85
2022-12-25T18:01:50.231Z,11.05
2022-12-25T18:04:19.699Z,8.57
2022-12-25T18:06:49.256Z,9.68
2022-12-25T18:09:19.310Z,13.77
2022-12-25T18:11:50.050Z,9.15
2022-12-25T18:14:20.033Z,7.00
2022-12-25T18:16:51.351Z,9.00
2022-12-25T18:19:21.009Z,6.38
2022-12-25T18:21:51.704Z,6.50
2022-12-25T18:24:21.276Z,6.00
2022-12-25T18:26:50.762Z,6.97
2022-12-25T18:29:20.101Z,2.83
2022-12-25T18:31:51.622Z,13.27
2022-12-25T18:34:21.064Z,10.55
2022-12-25T18:36:50.502Z,6.65
2022-12-25T18:39:19.763Z,3.42
2022-12-25T18:42:06.428Z,7.40
2022-12-25T18:44:35.722Z,5.72
2022-12-25T18:47:06.529Z,3.40
2022-12-25T18:49:35.960Z,6.45
2022-12-25T18:52:47.575Z,11.48
2022-12-25T18:54:57.415Z,11.38
2022-12-25T18:57:26.898Z,3.97
2022-12-25T18:59:56.220Z,5.00
2022-12-25T19:02:27.102Z,5.15
2022-12-25T19:04:56.949Z,5.82
2022-12-25T19:07:26.228Z,6.18
2022-12-25T19:09:56.034Z,2.75
2022-12-25T19:12:25.327Z,3.47
2022-12-25T19:14:54.724Z,4.57
2022-12-25T19:17:31.176Z,3.80
2022-12-25T19:20:02.531Z,6.18
2022-12-25T19:22:31.756Z,3.28
2022-12-25T19:25:01.023Z,3.42
2022-12-25T19:27:30.380Z,3.05
2022-12-25T19:29:59.654Z,6.32
2022-12-25T19:32:28.897Z,6.78
2022-12-25T19:34:58.187Z,6.85
2022-12-25T19:37:28.993Z,3.47
2022-12-25T19:39:58.974Z,5.68
2022-12-25T19:42:29.110Z,5.15
2022-12-25T19:44:59.379Z,1.55
2022-12-25T19:47:29.119Z,3.03
2022-12-25T19:50:02.627Z,2.25
2022-12-25T19:52:34.947Z,3.00
2022-12-25T19:55:05.438Z,3.92
2022-12-25T19:57:34.754Z,2.88
2022-12-25T20:00:04.393Z,3.17
2022-12-25T20:02:43.029Z,4.35
2022-12-25T20:05:12.808Z,3.20
2022-12-25T20:07:43.818Z,4.55
2022-12-25T20:10:13.413Z,1.88
2022-12-25T20:12:42.805Z,1.88
2022-12-25T20:15:12.788Z,2.38
2022-12-25T20:17:42.434Z,6.30
2022-12-25T20:20:14.520Z,2.05
2022-12-25T20:22:45.294Z,3.08
2022-12-25T20:25:14.700Z,1.88
2022-12-25T20:27:43.967Z,1.98
2022-12-25T20:30:14.748Z,1.80
2022-12-25T20:32:50.075Z,3.88
2022-12-25T20:35:20.069Z,2.13
2022-12-25T20:37:51.099Z,1.73
2022-12-25T20:40:20.548Z,2.78
2022-12-25T20:42:50.034Z,1.50
2022-12-25T20:45:20.039Z,4.22
2022-12-25T20:47:49.433Z,1.70
2022-12-25T20:50:19.048Z,1.75
2022-12-25T20:52:50.088Z,2.58
2022-12-25T20:55:19.765Z,2.97
2022-12-25T20:57:49.074Z,3.65
2022-12-25T21:00:19.333Z,3.22
2022-12-25T21:02:48.973Z,1.92
2022-12-25T21:05:18.376Z,3.40
2022-12-25T21:07:47.597Z,1.88
2022-12-25T21:10:18.381Z,3.30
2022-12-25T21:12:47.813Z,3.72
2022-12-25T21:15:17.184Z,1.65
2022-12-25T21:17:46.415Z,1.77
2022-12-25T21:20:15.685Z,5.18
2022-12-25T21:22:44.898Z,2.33
2022-12-25T21:25:14.032Z,2.92
2022-12-25T21:27:44.677Z,1.50
2022-12-25T21:30:15.717Z,3.35
2022-12-25T21:33:02.454Z,2.97
2022-12-25T21:35:32.639Z,2.65
2022-12-25T21:38:01.836Z,1.83
2022-12-25T21:40:31.207Z,2.78
2022-12-25T21:43:02.040Z,1.98
2022-12-25T21:45:31.497Z,1.58
2022-12-25T21:48:02.979Z,1.70
2022-12-25T21:50:46.519Z,4.57
2022-12-25T21:53:19.857Z,2.33
2022-12-25T21:56:00.707Z,1.70
2022-12-25T21:58:31.496Z,3.67
2022-12-25T22:01:04.094Z,2.03
2022-12-25T22:03:33.567Z,1.45
2022-12-25T22:06:21.818Z,2.00
2022-12-25T22:08:51.191Z,2.17
2022-12-25T22:11:37.944Z,1.58
2022-12-25T22:14:52.342Z,2.28
2022-12-25T22:17:33.193Z,1.98
2022-12-25T22:20:02.495Z,1.48
2022-12-25T22:22:32.254Z,1.67
2022-12-25T22:25:02.899Z,1.92
2022-12-25T22:27:33.713Z,3.47
2022-12-25T22:30:05.138Z,2.47
2022-12-25T22:32:34.964Z,1.60
2022-12-25T22:35:04.448Z,2.13
2022-12-25T22:37:34.497Z,2.55
2022-12-25T22:40:04.309Z,1.60
2022-12-25T22:42:33.647Z,1.60
2022-12-25T22:45:04.472Z,1.55
2022-12-25T22:47:33.791Z,1.77
2022-12-25T22:50:03.194Z,2.08
2022-12-25T22:52:32.478Z,2.03
2022-12-25T22:55:02.655Z,2.15
2022-12-25T22:57:31.871Z,1.63
2022-12-25T23:00:01.506Z,1.85
2022-12-25T23:02:32.412Z,1.70
2022-12-25T23:05:01.855Z,2.15
2022-12-25T23:07:31.054Z,2.03
2022-12-25T23:10:00.872Z,2.05
2022-12-25T23:12:47.774Z,1.67
2022-12-25T23:15:17.183Z,1.63
2022-12-25T23:18:05.528Z,2.13
2022-12-25T23:20:52.256Z,2.55
2022-12-25T23:23:39.011Z,1.83
2022-12-25T23:26:11.177Z,1.75
2022-12-25T23:29:00.671Z,1.65
2022-12-25T23:31:33.807Z,2.72
2022-12-25T23:34:06.200Z,1.88
2022-12-25T23:36:36.001Z,2.22
2022-12-25T23:39:10.112Z,1.77
2022-12-25T23:41:40.098Z,1.55
2022-12-25T23:44:09.813Z,1.90
2022-12-25T23:46:39.306Z,1.77
2022-12-25T23:49:10.678Z,1.85
2022-12-25T23:51:43.201Z,2.50
2022-12-25T23:54:13.992Z,2.08
2022-12-25T23:56:44.197Z,3.13
2022-12-25T23:59:14.399Z,1.63
